createdAt,value
2022-11-14T00:03:06.676Z,0.7
2022-11-14T00:08:04.751Z,0.7
2022-11-14T00:13:02.982Z,0.7
2022-11-14T00:18:01.042Z,0.6
2022-11-14T00:22:58.945Z,0.5
2022-11-14T00:27:57.030Z,0.5
2022-11-14T00:32:55.230Z,0.7
2022-11-14T00:37:53.548Z,0.8
2022-11-14T00:42:51.780Z,0.6
2022-11-14T00:47:50.052Z,0.8
2022-11-14T00:52:48.408Z,0.8
2022-11-14T00:57:46.196Z,0.6
2022-11-14T01:02:44.412Z,0.6
2022-11-14T01:07:42.669Z,0.6
2022-11-14T01:12:40.864Z,0.7
2022-11-14T01:17:38.943Z,0.6
2022-11-14T01:22:37.179Z,0.6
2022-11-14T01:27:35.426Z,0.5
2022-11-14T01:32:33.711Z,0.6
2022-11-14T01:37:31.883Z,0.8
2022-11-14T01:42:30.041Z,0.7
2022-11-14T01:47:28.153Z,0.6
2022-11-14T01:52:26.209Z,0.4
2022-11-14T01:57:24.316Z,0.4
2022-11-14T02:02:22.387Z,0.4
2022-11-14T02:07:20.649Z,0.3
2022-11-14T02:12:18.561Z,0.3
2022-11-14T02:17:31.942Z,0.4
2022-11-14T02:22:15.087Z,0.5
2022-11-14T02:27:13.179Z,0.5
2022-11-14T02:32:11.653Z,0.4
2022-11-14T02:37:09.487Z,0.2
2022-11-14T02:42:07.608Z,0.2
2022-11-14T02:47:05.664Z,0.3
2022-11-14T02:52:03.835Z,0.4
2022-11-14T02:57:02.313Z,0.6
2022-11-14T03:02:00.603Z,0.5
2022-11-14T03:06:58.702Z,0.5
2022-11-14T03:11:56.929Z,0.3
2022-11-14T03:16:54.982Z,0.1
2022-11-14T03:21:52.900Z,0
2022-11-14T03:26:50.998Z,-0.2
2022-11-14T03:31:49.289Z,-0.2
2022-11-14T03:36:47.379Z,-0.1
2022-11-14T03:41:45.617Z,-0.2
2022-11-14T03:46:43.838Z,-0.3
2022-11-14T03:51:42.060Z,-0.4
2022-11-14T03:56:40.180Z,-0.5
2022-11-14T04:01:38.620Z,-0.6
2022-11-14T04:06:37.243Z,-0.4
2022-11-14T04:11:35.745Z,-0.2
2022-11-14T04:16:34.100Z,0.2
2022-11-14T04:21:32.462Z,0.2
2022-11-14T04:26:30.717Z,0.3
2022-11-14T04:31:29.110Z,0.4
2022-11-14T04:36:27.199Z,0.6
2022-11-14T04:41:25.538Z,0.5
2022-11-14T04:46:23.765Z,0.5
2022-11-14T04:51:22.009Z,0.6
2022-11-14T04:56:20.313Z,0.4
2022-11-14T05:01:18.678Z,0.4
2022-11-14T05:06:16.885Z,0.5
2022-11-14T05:11:15.027Z,0.5
2022-11-14T05:16:13.038Z,0.4
2022-11-14T05:21:11.203Z,0.6
2022-11-14T05:26:09.482Z,0.7
2022-11-14T05:31:07.773Z,0.9
2022-11-14T05:36:06.076Z,1
2022-11-14T05:41:04.319Z,1.2
2022-11-14T05:46:02.379Z,1.6
2022-11-14T05:51:00.816Z,1.7
2022-11-14T05:55:59.151Z,2.2
2022-11-14T06:00:57.573Z,2.4
2022-11-14T06:05:55.847Z,2.5
2022-11-14T06:10:54.006Z,2.7
2022-11-14T06:15:52.491Z,3
2022-11-14T06:20:51.082Z,2.9
2022-11-14T06:25:49.435Z,3.7
2022-11-14T06:30:47.896Z,4
2022-11-14T06:35:46.456Z,4.5
2022-11-14T06:40:45.020Z,4.8
2022-11-14T06:45:43.533Z,5.1
2022-11-14T06:50:41.949Z,5.5
2022-11-14T06:55:40.645Z,5.8
2022-11-14T07:00:39.429Z,6.3
2022-11-14T07:05:38.208Z,6.9
2022-11-14T07:10:36.795Z,7.3
2022-11-14T07:15:35.369Z,7.8
2022-11-14T07:20:34.210Z,8.3
2022-11-14T07:25:33.012Z,8.8
2022-11-14T07:30:31.783Z,9.2
2022-11-14T07:35:30.635Z,9.6
2022-11-14T07:40:29.289Z,9.7
2022-11-14T07:45:27.572Z,9.6
2022-11-14T07:50:26.001Z,9.7
2022-11-14T07:55:24.741Z,9.9
2022-11-14T08:00:23.264Z,10.3
2022-11-14T08:05:21.952Z,10.8
2022-11-14T08:10:21.025Z,11.1
2022-11-14T08:15:19.725Z,11.8
2022-11-14T08:20:18.441Z,12.2
2022-11-14T08:25:16.743Z,12.1
2022-11-14T08:30:15.262Z,12.4
2022-11-14T08:35:13.641Z,12.8
2022-11-14T08:40:12.291Z,13
2022-11-14T08:45:10.771Z,13.5
2022-11-14T08:50:09.291Z,13.6
2022-11-14T08:55:08.342Z,14
2022-11-14T09:00:08.043Z,14.8
2022-11-14T09:05:06.829Z,15.2
2022-11-14T09:10:05.676Z,15.6
2022-11-14T09:15:04.850Z,16.3
2022-11-14T09:20:03.181Z,16.3
2022-11-14T09:25:01.942Z,17.4
2022-11-14T09:30:01.771Z,18.6
2022-11-14T09:35:00.765Z,19.3
2022-11-14T09:39:59.928Z,19.6
2022-11-14T09:44:58.675Z,20.2
2022-11-14T09:50:01.733Z,22.5
2022-11-14T09:55:02.553Z,24.4
2022-11-14T10:00:02.541Z,25.9
2022-11-14T10:05:02.081Z,27
2022-11-14T10:10:01.006Z,27.4
2022-11-14T10:14:59.534Z,27.8
2022-11-14T10:19:57.877Z,28.2
2022-11-14T10:24:56.082Z,28.5
2022-11-14T10:29:54.410Z,28.5
2022-11-14T10:34:52.510Z,28.3
2022-11-14T10:39:50.184Z,28
2022-11-14T10:44:48.615Z,28.1
2022-11-14T10:49:46.531Z,27.8
2022-11-14T10:54:44.022Z,27
2022-11-14T10:59:40.577Z,25.7
2022-11-14T11:04:37.222Z,24.3
2022-11-14T11:09:33.891Z,22.9
2022-11-14T11:14:31.178Z,21.8
2022-11-14T11:19:29.332Z,21.5
2022-11-14T11:24:27.301Z,21
2022-11-14T11:29:24.969Z,20.5
2022-11-14T11:34:22.484Z,19.7
2022-11-14T11:39:19.998Z,19.2
2022-11-14T11:44:17.948Z,19.3
2022-11-14T11:49:16.410Z,19.6
2022-11-14T11:54:14.598Z,19.9
2022-11-14T11:59:12.947Z,20.2
2022-11-14T12:04:11.541Z,20.5
2022-11-14T12:09:09.867Z,20.6
2022-11-14T12:14:07.793Z,20.8
2022-11-14T12:19:05.949Z,21
2022-11-14T12:24:03.903Z,20.9
2022-11-14T12:29:02.011Z,20.9
2022-11-14T12:34:00.117Z,21
2022-11-14T12:38:58.272Z,20.9
2022-11-14T12:43:56.323Z,20.6
2022-11-14T12:48:54.044Z,20.1
2022-11-14T12:53:51.923Z,20
2022-11-14T12:58:49.749Z,19.4
2022-11-14T13:03:46.976Z,18.1
2022-11-14T13:08:44.205Z,16.7
2022-11-14T13:13:41.654Z,15.3
2022-11-14T13:18:39.185Z,13.9
2022-11-14T13:23:36.502Z,12.9
2022-11-14T13:28:34.114Z,12.2
2022-11-14T13:33:32.158Z,11.7
2022-11-14T13:38:29.566Z,11.2
2022-11-14T13:43:27.525Z,10.9
2022-11-14T13:48:25.494Z,10.5
2022-11-14T13:53:23.534Z,10.6
2022-11-14T13:58:21.835Z,10.4
2022-11-14T14:03:20.253Z,9.8
2022-11-14T14:08:18.176Z,9.7
2022-11-14T14:13:16.363Z,9.6
2022-11-14T14:18:14.366Z,9.4
2022-11-14T14:23:12.888Z,9.2
2022-11-14T14:28:11.207Z,9.1
2022-11-14T14:33:09.108Z,8.8
2022-11-14T14:38:07.120Z,8.8
2022-11-14T14:43:05.120Z,8.6
2022-11-14T14:48:03.128Z,8.4
2022-11-14T14:53:01.268Z,8.3
2022-11-14T14:57:59.516Z,8.1
2022-11-14T15:02:57.480Z,7.8
2022-11-14T15:07:55.892Z,7.5
2022-11-14T15:12:53.825Z,7.2
2022-11-14T15:17:51.665Z,6.9
2022-11-14T15:22:49.752Z,6.6
2022-11-14T15:27:48.037Z,6.4
2022-11-14T15:32:46.045Z,6.3
2022-11-14T15:37:44.116Z,6.2
2022-11-14T15:42:42.261Z,6
2022-11-14T15:47:40.373Z,5.9
2022-11-14T15:52:38.713Z,5.9
2022-11-14T15:57:36.714Z,5.7
2022-11-14T16:02:34.986Z,5.7
2022-11-14T16:07:34.308Z,5.6
2022-11-14T16:12:32.366Z,5.6
2022-11-14T16:17:30.761Z,5.5
2022-11-14T16:22:29.004Z,5.4
2022-11-14T16:27:27.056Z,5.3
2022-11-14T16:32:25.130Z,5.3
2022-11-14T16:37:23.368Z,5.3
2022-11-14T16:42:21.549Z,5.2
2022-11-14T16:47:19.697Z,5.2
2022-11-14T16:52:17.720Z,5.1
2022-11-14T16:57:16.022Z,5.1
2022-11-14T17:02:14.248Z,5.1
2022-11-14T17:07:12.389Z,5
2022-11-14T17:12:10.657Z,5
2022-11-14T17:17:08.693Z,4.9
2022-11-14T17:22:06.693Z,4.8
2022-11-14T17:27:04.713Z,4.8
2022-11-14T17:32:03.145Z,4.7
2022-11-14T17:37:01.407Z,4.6
2022-11-14T17:41:59.616Z,4.7
2022-11-14T17:46:58.323Z,4.7
2022-11-14T17:51:56.477Z,4.6
2022-11-14T17:56:55.217Z,4.5
2022-11-14T18:01:53.042Z,4.3
2022-11-14T18:06:51.264Z,4.3
2022-11-14T18:11:49.485Z,4.3
2022-11-14T18:17:10.886Z,4.2
2022-11-14T18:21:47.932Z,4.1
2022-11-14T18:26:44.063Z,4.1
2022-11-14T18:31:42.062Z,4
2022-11-14T18:36:39.996Z,3.8
2022-11-14T18:41:38.062Z,4
2022-11-14T18:46:37.648Z,4
2022-11-14T18:51:34.161Z,3.9
2022-11-14T18:56:32.581Z,3.7
2022-11-14T19:01:30.921Z,3.6
2022-11-14T19:06:29.187Z,3.5
2022-11-14T19:11:27.448Z,3.6
2022-11-14T19:16:25.712Z,3.6
2022-11-14T19:21:23.945Z,3.5
2022-11-14T19:26:22.192Z,3.4
2022-11-14T19:31:20.307Z,3.3
2022-11-14T19:36:27.790Z,3.3
2022-11-14T19:41:16.708Z,3.3
2022-11-14T19:46:14.964Z,3.2
2022-11-14T19:51:13.068Z,3.2
2022-11-14T19:56:11.324Z,3
2022-11-14T20:01:09.633Z,3
2022-11-14T20:06:07.655Z,2.9
2022-11-14T20:11:05.726Z,2.8
2022-11-14T20:16:04.103Z,2.8
2022-11-14T20:21:02.109Z,2.7
2022-11-14T20:26:00.390Z,2.7
2022-11-14T20:30:58.420Z,2.7
2022-11-14T20:35:56.539Z,2.7
2022-11-14T20:40:54.603Z,2.6
2022-11-14T20:45:52.808Z,2.6
2022-11-14T20:50:50.640Z,2.5
2022-11-14T20:55:48.674Z,2.5
2022-11-14T21:00:46.874Z,2.5
2022-11-14T21:05:45.009Z,2.3
2022-11-14T21:10:42.919Z,2.3
2022-11-14T21:15:41.219Z,2.4
2022-11-14T21:20:39.298Z,2.4
2022-11-14T21:25:37.516Z,2.4
2022-11-14T21:30:35.441Z,2.3
2022-11-14T21:35:33.627Z,2.3
2022-11-14T21:40:31.681Z,2.1
2022-11-14T21:45:29.691Z,2
2022-11-14T21:50:27.808Z,2
2022-11-14T21:55:25.970Z,1.9
2022-11-14T22:00:23.923Z,1.8
2022-11-14T22:05:21.917Z,1.8
2022-11-14T22:10:19.872Z,1.6
2022-11-14T22:15:17.924Z,1.6
2022-11-14T22:20:16.065Z,1.6
2022-11-14T22:25:14.183Z,1.7
2022-11-14T22:30:12.356Z,1.6
2022-11-14T22:35:10.370Z,1.5
2022-11-14T22:40:08.475Z,1.6
2022-11-14T22:45:06.641Z,1.5
2022-11-14T22:50:04.740Z,1.4
2022-11-14T22:55:02.903Z,1.3
2022-11-14T23:00:01.037Z,1.3
2022-11-14T23:04:59.249Z,1.3
2022-11-14T23:09:57.461Z,1.2
2022-11-14T23:14:55.686Z,1.3
2022-11-14T23:19:54.206Z,1.3
2022-11-14T23:24:52.465Z,1.3
2022-11-14T23:29:50.542Z,1.2
2022-11-14T23:34:48.749Z,1.1
2022-11-14T23:39:46.681Z,1.1
2022-11-14T23:44:44.871Z,1.1
2022-11-14T23:49:43.017Z,1.1
2022-11-14T23:54:40.986Z,1
2022-11-14T23:59:39.173Z,0.8
